Casterton, Victoria

3:08 PM AEST on August 24, 2016 (GMT +1000)
KELPIE COUNTRY Far Southwest of Victoria Australia | | Change Station

Elev 240 ft 37.59 °S, 141.41 °E | Updated 10 seconds ago

Overcast
Overcast
52.5 °F
Feels Like 52.5 °F
N
5.0
Wind Variable Wind from NNE
Gusts 10.0 mph

Today
High -- | Low -- °F
--% Chance of Precip.
Yesterday
High -- | Low -- °F
Precip. -- in
Pressure 29.98 in
Visibility 6.2 miles
Clouds Scattered Clouds 3300 ft
Mostly Cloudy 4500 ft
Overcast 5700 ft
Dew Point 43 °F
Humidity 69%
Rainfall 0.00 in
Snow Depth Not available.
7:07 AM 6:06 PM
Waning Gibbous, 61% visible
METAR YMTG 240400Z AUTO 14008KT 9999 // SCT033 BKN045 OVC057 11/04 Q1015
Pressure 29.98 in
Visibility 6.2 miles
Clouds Scattered Clouds 3300 ft
Mostly Cloudy 4500 ft
Overcast 5700 ft
Dew Point 43 °F
Humidity 69%
Rainfall 0.00 in
Snow Depth Not available.
7:07 AM 6:06 PM
Waning Gibbous, 61% visible
METAR YMTG 240400Z AUTO 14008KT 9999 // SCT033 BKN045 OVC057 11/04 Q1015

10-Day Weather Forecast

Almanac

Astronomy

Aug. 24, 2016 Rise Set
Actual Time
Civil Twilight
Nautical Twilight
Astronomical Twilight
Moon
Length of Visible Light
Length of Day
Tomorrow will be .
, % of the Moon is Illuminated

Today's Extremes

Country Highs Country Lows

Community

WunderPhotos

Upload Photos

1,934,554 photos uploaded!

WunderBlog® & News

Nearby

Air Quality

  Air Quality AQ Index Pollutant
Not available.

Snow Depth

Station Depth Elevation

Earthquake Activity

City Distance Mag. Time & Date
Minimum magnitude displayed is 2.5.

Coastal Water Temperatures

Place Temperature

Stations

Nearby Weather Stations

Station Location Temp. Windchill Dew Point Humidity Wind Precip. Elev Updated Type